Baldwin, ND (58521)

2:03 PM CST on February 13, 2016 (GMT -0600)
136 Ave NW | | Change Station
CLOSE
Current Station
Personal Weather Station
Location: Bismarck, ND
Elevation: 1932 ft
Nearby Weather Stations
Active Advisory: Winter Weather Advisory

Elev 1932 ft 46.95 °N, 100.83 °W | Updated 1 second ago

Overcast
Overcast
12.2 °F
Feels Like -5 °F
N
18.3
Wind Variable Wind from South
Gusts 19.9 mph

Today
High -- | Low -- °F
--% Chance of Precip.
Yesterday
High -- | Low -- °F
Precip. -- in
Pressure 30.14 in
Visibility 7.0 miles
Clouds Overcast 1500 ft
Windchill -5 °F
Dew Point 2 °F
Humidity 62%
Rainfall 0.00 in
Snow Depth Not available.
7:51 AM 6:03 PM
Waxing Crescent, 33% visible
METAR KBIS 131952Z 15019G24KT 7SM -SN OVC015 M09/M13 A3004 RMK AO2 PK WND 15026/1902 SNB33 SLP207 P0000 T10891133
Pressure 30.14 in
Visibility 7.0 miles
Clouds Overcast 1500 ft
Windchill -5 °F
Dew Point 2 °F
Humidity 62%
Rainfall 0.00 in
Snow Depth Not available.
7:51 AM 6:03 PM
Waxing Crescent, 33% visible
METAR KBIS 131952Z 15019G24KT 7SM -SN OVC015 M09/M13 A3004 RMK AO2 PK WND 15026/1902 SNB33 SLP207 P0000 T10891133

10-Day Weather Forecast

Almanac

Astronomy

Feb. 13, 2016 Rise Set
Actual Time
Civil Twilight
Nautical Twilight
Astronomical Twilight
Moon
Length of Visible Light
Length of Day
Tomorrow will be .
, % of the Moon is Illuminated

Today's Extremes

State Highs State Lows

Community

WunderPhotos

Upload Photos

1,892,653 photos uploaded!

WunderBlog® & News

Nearby

Air Quality

  Air Quality AQ Index Pollutant
Not available.

Snow Depth

Station Depth Elevation

Earthquake Activity

City Distance Mag. Time & Date
Minimum magnitude displayed is 2.5.

Coastal Water Temperatures

Place Temperature

Stations

Nearby Weather Stations

Station Location Temp. Windchill Dew Point Humidity Wind Precip. Elev Updated Type
                   

Watches & Warnings

Winter Weather Advisory
Issued: 1:39 PM CST Feb. 13, 2016 – National Weather Service

... Winter Weather Advisory remains in effect until 6 am CST
Sunday...

* expect snow to develop late this afternoon into early this
evening... and then diminish early Sunday morning.

* The heaviest snowfall rates will occur between 6 PM this
evening and midnight tonight.

* Total snow accumulations of 2 to 5 inches... with localized
amounts up to 6 inches are expected.

* Winds gusting as high as 35 mph will cause areas of blowing and
drifting snow. Some reductions to visibility are expected.

Precautionary/preparedness actions...

A Winter Weather Advisory means that periods of snow... sleet or
freezing rain will cause travel difficulties. Be prepared for
slippery roads and limited visibilities... and use caution while
driving. The latest Road conditions for the state you are calling
from can be obtained by calling 5 1 1.